createdAt,value
2019-02-16T00:00:20.342Z,100776.89
2019-02-16T00:04:24.680Z,100777.56
2019-02-16T00:08:27.469Z,100767.11
2019-02-16T00:12:30.244Z,100761.59
2019-02-16T00:16:33.122Z,100765.27
2019-02-16T00:20:35.843Z,100749.37
2019-02-16T00:24:39.045Z,100752.53
2019-02-16T00:28:41.653Z,100755.75
2019-02-16T00:32:44.355Z,100744.06
2019-02-16T00:36:47.241Z,100738.72
2019-02-16T00:40:50.017Z,100745.02
2019-02-16T00:44:52.402Z,100727.57
2019-02-16T00:48:55.280Z,100724.59
2019-02-16T00:52:57.652Z,100711.31
2019-02-16T00:57:00.101Z,100695.09
2019-02-16T01:01:02.975Z,100696.50
2019-02-16T01:05:06.211Z,100694.73
2019-02-16T01:09:08.674Z,100682.05
2019-02-16T01:13:11.211Z,100675.93
2019-02-16T01:17:13.563Z,100665.88
2019-02-16T01:21:22.558Z,100652.74
2019-02-16T01:25:20.086Z,100646.26
2019-02-16T01:29:22.578Z,100637.89
2019-02-16T01:33:24.936Z,100628.55
2019-02-16T01:37:27.590Z,100629.04
2019-02-16T01:41:30.287Z,100622.33
2019-02-16T01:45:33.164Z,100613.50
2019-02-16T01:49:35.982Z,100615.36
2019-02-16T01:53:38.830Z,100593.43
2019-02-16T01:57:41.286Z,100586.37
2019-02-16T02:01:44.049Z,100574.64
2019-02-16T02:05:46.424Z,100568.92
2019-02-16T02:09:49.210Z,100557.87
2019-02-16T02:13:51.809Z,100558.27
2019-02-16T02:17:54.495Z,100554.70
2019-02-16T02:21:56.852Z,100564.14
2019-02-16T02:25:59.582Z,100575.77
2019-02-16T02:30:02.296Z,100567.88
2019-02-16T02:34:04.816Z,100562.08
2019-02-16T02:38:07.194Z,100562.94
2019-02-16T02:42:09.822Z,100546.71
2019-02-16T02:46:12.561Z,100543.53
2019-02-16T02:50:15.659Z,100521.91
2019-02-16T02:54:18.119Z,100520.12
2019-02-16T02:58:20.567Z,100522.61
2019-02-16T03:02:22.932Z,100504.97
2019-02-16T03:06:25.658Z,100496.02
2019-02-16T03:10:28.009Z,100499.66
2019-02-16T03:14:30.509Z,100488.89
2019-02-16T03:18:32.914Z,100472.34
2019-02-16T03:23:31.215Z,100460.97
2019-02-16T03:28:26.337Z,100462.69
2019-02-16T03:33:16.100Z,100444.83
2019-02-16T03:37:55.994Z,100442.87
2019-02-16T03:41:58.942Z,100443.13
2019-02-16T03:46:01.713Z,100442.98
2019-02-16T03:50:06.166Z,100430.69
2019-02-16T03:54:09.137Z,100433.47
2019-02-16T03:58:12.907Z,100431.98
2019-02-16T04:02:15.543Z,100405.78
2019-02-16T04:06:18.221Z,100410.18
2019-02-16T04:10:20.709Z,100402.14
2019-02-16T04:14:23.510Z,100401.83
2019-02-16T04:18:26.344Z,100391.83
2019-02-16T04:22:29.181Z,100380.52
2019-02-16T04:26:31.906Z,100381.66
2019-02-16T04:30:34.758Z,100368.48
2019-02-16T04:34:38.465Z,100362.27
2019-02-16T04:38:41.199Z,100359.73
2019-02-16T04:42:43.795Z,100349.70
2019-02-16T04:46:46.465Z,100337.67
2019-02-16T04:50:49.067Z,100329.79
2019-02-16T04:54:52.600Z,100324.58
2019-02-16T04:58:55.331Z,100313.34
2019-02-16T05:02:58.000Z,100317.73
2019-02-16T05:07:00.829Z,100315.05
2019-02-16T05:11:03.464Z,100315.11
2019-02-16T05:15:06.022Z,100304.95
2019-02-16T05:19:08.732Z,100299.83
2019-02-16T05:23:11.435Z,100299.13
2019-02-16T05:27:14.202Z,100287.72
2019-02-16T05:31:16.899Z,100293.44
2019-02-16T05:35:19.622Z,100286.66
2019-02-16T05:39:22.187Z,100280.09
2019-02-16T05:43:24.847Z,100276.68
2019-02-16T05:47:27.502Z,100269.97
2019-02-16T05:51:30.954Z,100259.08
2019-02-16T05:55:33.954Z,100256.14
2019-02-16T05:59:36.770Z,100252.45
2019-02-16T06:03:39.794Z,100247.97
2019-02-16T06:07:42.824Z,100243.12
2019-02-16T06:11:45.387Z,100244.55
2019-02-16T06:15:48.352Z,100239.55
2019-02-16T06:19:50.768Z,100234.84
2019-02-16T06:23:53.380Z,100224.13
2019-02-16T06:27:55.911Z,100217.92
2019-02-16T06:31:58.578Z,100230.66
2019-02-16T06:36:05.796Z,100216.37
2019-02-16T06:40:08.560Z,100212.76
2019-02-16T06:44:10.913Z,100203.75
2019-02-16T06:48:13.341Z,100201.16
2019-02-16T06:52:15.678Z,100203.26
2019-02-16T06:56:27.541Z,100189.32
2019-02-16T07:00:31.115Z,100187.68
2019-02-16T07:04:33.531Z,100161.45
2019-02-16T07:08:35.897Z,100160.59
2019-02-16T07:12:38.387Z,100151.05
2019-02-16T07:16:56.087Z,100139.14
2019-02-16T07:20:58.531Z,100135.46
2019-02-16T07:25:00.902Z,100148.09
2019-02-16T07:29:03.346Z,100151.92
2019-02-16T07:33:05.808Z,100141.47
2019-02-16T07:37:08.447Z,100123.89
2019-02-16T07:41:10.920Z,100114.83
2019-02-16T07:45:27.375Z,100117.81
2019-02-16T07:49:37.937Z,100115.11
2019-02-16T07:53:59.101Z,100109.30
2019-02-16T07:58:34.262Z,100111.55
2019-02-16T08:03:01.865Z,100105.55
2019-02-16T08:07:13.696Z,100103.66
2019-02-16T08:11:25.773Z,100089.91
2019-02-16T08:15:53.057Z,100088.48
2019-02-16T08:20:13.038Z,100094.18
2019-02-16T08:24:38.701Z,100090.42
2019-02-16T08:29:06.081Z,100082.56
2019-02-16T08:33:15.938Z,100077.81
2019-02-16T08:37:34.401Z,100069.36
2019-02-16T08:41:50.822Z,100057.59
2019-02-16T08:46:12.866Z,100060.28
2019-02-16T08:50:33.146Z,100052.59
2019-02-16T08:55:00.332Z,100053.78
2019-02-16T08:59:24.508Z,100047.44
2019-02-16T09:03:59.602Z,100030.14
2019-02-16T09:08:20.668Z,100019.87
2019-02-16T09:12:51.363Z,100016.59
2019-02-16T09:17:13.309Z,100011.21
2019-02-16T09:21:23.006Z,100017.98
2019-02-16T09:25:49.928Z,100002.75
2019-02-16T09:30:14.779Z,100001.88
2019-02-16T09:34:23.961Z,100008.66
2019-02-16T09:38:54.502Z,99994.03
2019-02-16T09:43:08.041Z,99994.72
2019-02-16T09:47:19.203Z,99977.30
2019-02-16T09:51:40.316Z,99977.45
2019-02-16T09:56:00.456Z,99977.26
2019-02-16T10:00:10.730Z,99973.42
2019-02-16T10:04:31.992Z,99962.60
2019-02-16T10:08:53.347Z,99954.66
2019-02-16T10:13:14.730Z,99961.05
2019-02-16T10:17:42.427Z,99960.23
2019-02-16T10:22:16.135Z,99950.59
2019-02-16T10:26:37.270Z,99952.91
2019-02-16T10:30:47.971Z,99944.23
2019-02-16T10:35:09.196Z,99939.54
2019-02-16T10:39:19.790Z,99931.95
2019-02-16T10:43:40.890Z,99927.03
2019-02-16T10:48:14.141Z,99926.28
2019-02-16T10:52:33.616Z,99913.99
2019-02-16T10:57:04.196Z,99915.92
2019-02-16T11:01:25.469Z,99910.27
2019-02-16T11:05:53.061Z,99897.73
2019-02-16T11:10:19.345Z,99897.34
2019-02-16T11:14:46.416Z,99889.61
2019-02-16T11:18:55.919Z,99880.22
2019-02-16T11:23:17.020Z,99883.09
2019-02-16T11:27:44.632Z,99893.56
2019-02-16T11:32:08.889Z,99898.14
2019-02-16T11:36:35.300Z,99899.36
2019-02-16T11:40:59.103Z,99898.00
2019-02-16T11:45:20.166Z,99894.16
2019-02-16T11:49:33.272Z,99867.58
2019-02-16T11:53:52.990Z,99873.28
2019-02-16T11:58:16.222Z,99878.20
2019-02-16T12:02:52.964Z,99868.68
2019-02-16T12:07:14.247Z,99858.69
2019-02-16T12:11:53.939Z,99855.84
2019-02-16T12:16:15.100Z,99830.41
2019-02-16T12:20:39.000Z,99824.13
2019-02-16T12:25:04.867Z,99835.10
2019-02-16T12:29:30.523Z,99836.91
2019-02-16T12:33:58.021Z,99828.39
2019-02-16T12:38:10.012Z,99820.17
2019-02-16T12:42:43.425Z,99807.34
2019-02-16T12:47:16.830Z,99804.55
2019-02-16T12:51:40.752Z,99801.78
2019-02-16T12:55:59.192Z,99795.06
2019-02-16T13:00:14.631Z,99804.94
2019-02-16T13:04:38.746Z,99794.25
2019-02-16T13:08:48.765Z,99784.14
2019-02-16T13:12:58.009Z,99774.15
2019-02-16T13:17:18.138Z,99783.33
2019-02-16T13:21:57.660Z,99772.16
2019-02-16T13:26:16.820Z,99773.82
2019-02-16T13:30:36.766Z,99774.34
2019-02-16T13:34:52.166Z,99764.75
2019-02-16T13:39:13.258Z,99756.91
2019-02-16T13:43:33.690Z,99755.49
2019-02-16T13:47:54.804Z,99754.77
2019-02-16T13:52:14.672Z,99747.05
2019-02-16T13:56:28.064Z,99747.70
2019-02-16T14:00:58.295Z,99744.78
2019-02-16T14:05:22.474Z,99743.23
2019-02-16T14:09:42.360Z,99739.88
2019-02-16T14:13:56.064Z,99722.79
2019-02-16T14:17:58.496Z,99723.39
2019-02-16T14:22:00.824Z,99720.28
2019-02-16T14:26:03.433Z,99706.42
2019-02-16T14:30:06.453Z,99676.86
2019-02-16T14:34:09.489Z,99682.86
2019-02-16T14:38:35.398Z,99667.95
2019-02-16T14:42:37.884Z,99666.11
2019-02-16T14:46:40.220Z,99708.29
2019-02-16T14:50:42.674Z,99734.19
2019-02-16T14:54:45.128Z,99727.06
2019-02-16T14:58:47.538Z,99727.55
2019-02-16T15:02:49.880Z,99723.83
2019-02-16T15:06:52.338Z,99707.20
2019-02-16T15:10:54.739Z,99713.30
2019-02-16T15:14:57.187Z,99704.64
2019-02-16T15:18:59.776Z,99681.76
2019-02-16T15:23:02.411Z,99692.32
2019-02-16T15:27:04.849Z,99690.77
2019-02-16T15:31:07.364Z,99693.78
2019-02-16T15:35:10.697Z,99673.97
2019-02-16T15:39:13.155Z,99672.32
2019-02-16T15:43:15.590Z,99652.06
2019-02-16T15:47:18.408Z,99662.22
2019-02-16T15:51:20.770Z,99663.06
2019-02-16T15:55:23.163Z,99651.17
2019-02-16T15:59:25.502Z,99636.63
2019-02-16T16:03:29.064Z,99669.51
2019-02-16T16:07:31.797Z,99697.75
2019-02-16T16:11:45.239Z,99701.77
2019-02-16T16:16:01.323Z,99699.80
2019-02-16T16:20:25.396Z,99693.26
2019-02-16T16:24:39.684Z,99700.52
2019-02-16T16:29:00.794Z,99676.23
2019-02-16T16:33:31.425Z,99670.30
2019-02-16T16:37:59.204Z,99628.02
2019-02-16T16:42:19.154Z,99611.81
2019-02-16T16:46:39.292Z,99613.61
2019-02-16T16:50:50.015Z,99618.88
2019-02-16T16:55:14.458Z,99621.84
2019-02-16T16:59:35.536Z,99636.11
2019-02-16T17:04:12.544Z,99643.97
2019-02-16T17:08:29.153Z,99609.05
2019-02-16T17:12:49.232Z,99605.27
2019-02-16T17:17:12.711Z,99636.30
2019-02-16T17:21:35.870Z,99632.92
2019-02-16T17:26:16.346Z,99641.39
2019-02-16T17:30:31.745Z,99646.33
2019-02-16T17:34:52.814Z,99649.66
2019-02-16T17:39:12.879Z,99644.48
2019-02-16T17:43:33.649Z,99642.16
2019-02-16T17:48:07.895Z,99642.09
2019-02-16T17:52:27.528Z,99658.05
2019-02-16T17:56:46.796Z,99651.01
2019-02-16T18:01:08.756Z,99654.19
2019-02-16T18:05:34.587Z,99663.67
2019-02-16T18:09:58.794Z,99637.50
2019-02-16T18:14:16.968Z,99657.98
2019-02-16T18:18:51.739Z,99670.92
2019-02-16T18:23:09.799Z,99677.25
2019-02-16T18:27:36.912Z,99704.86
2019-02-16T18:32:13.712Z,99713.49
2019-02-16T18:36:28.704Z,99725.03
2019-02-16T18:40:42.611Z,99736.28
2019-02-16T18:45:06.500Z,99730.00
2019-02-16T18:49:24.414Z,99728.06
2019-02-16T18:53:58.325Z,99745.81
2019-02-16T18:58:12.048Z,99754.16
2019-02-16T19:02:32.299Z,99745.77
2019-02-16T19:06:45.214Z,99751.41
2019-02-16T19:11:09.465Z,99736.64
2019-02-16T19:15:48.940Z,99728.39
2019-02-16T19:20:16.611Z,99734.56
2019-02-16T19:24:27.953Z,99748.84
2019-02-16T19:28:50.883Z,99748.38
2019-02-16T19:33:05.069Z,99752.88
2019-02-16T19:37:23.143Z,99734.37
2019-02-16T19:41:43.556Z,99726.35
2019-02-16T19:46:20.465Z,99722.24
2019-02-16T19:50:30.683Z,99712.67
2019-02-16T19:54:44.213Z,99707.97
2019-02-16T19:59:08.712Z,99699.08
2019-02-16T20:03:32.979Z,99699.37
2019-02-16T20:07:52.962Z,99705.83
2019-02-16T20:12:05.274Z,99689.88
2019-02-16T20:16:45.538Z,99699.67
2019-02-16T20:21:07.270Z,99697.84
2019-02-16T20:25:27.875Z,99708.49
2019-02-16T20:29:48.032Z,99711.71
2019-02-16T20:34:15.686Z,99729.92
2019-02-16T20:38:36.764Z,99748.98
2019-02-16T20:42:57.924Z,99755.30
2019-02-16T20:47:09.407Z,99768.44
2019-02-16T20:51:18.541Z,99774.83
2019-02-16T20:55:55.071Z,99776.91
2019-02-16T21:00:22.673Z,99778.88
2019-02-16T21:04:42.952Z,99786.63
2019-02-16T21:09:16.239Z,99784.14
2019-02-16T21:13:33.170Z,99796.16
2019-02-16T21:17:57.575Z,99788.83
2019-02-16T21:22:21.534Z,99798.95
2019-02-16T21:26:46.578Z,99808.45
2019-02-16T21:30:58.844Z,99808.08
2019-02-16T21:35:09.822Z,99816.72
2019-02-16T21:39:20.217Z,99820.66
2019-02-16T21:43:41.640Z,99820.00
2019-02-16T21:48:05.788Z,99835.42
2019-02-16T21:52:27.047Z,99836.44
2019-02-16T21:56:48.778Z,99851.36
2019-02-16T22:01:16.275Z,99864.41
2019-02-16T22:05:36.600Z,99861.23
2019-02-16T22:09:58.199Z,99865.42
2019-02-16T22:14:00.541Z,99860.08
2019-02-16T22:18:02.984Z,99855.48
2019-02-16T22:22:05.314Z,99854.75
2019-02-16T22:26:07.750Z,99847.05
2019-02-16T22:30:11.767Z,99849.47
2019-02-16T22:34:14.170Z,99850.25
2019-02-16T22:38:16.481Z,99856.83
2019-02-16T22:42:19.128Z,99868.09
2019-02-16T22:46:21.461Z,99891.55
2019-02-16T22:50:23.897Z,99897.48
2019-02-16T22:54:27.542Z,99888.19
2019-02-16T22:58:29.928Z,99907.36
2019-02-16T23:02:32.241Z,99901.25
2019-02-16T23:06:34.650Z,99909.80
2019-02-16T23:10:37.088Z,99920.41
2019-02-16T23:14:39.447Z,99921.72
2019-02-16T23:18:41.812Z,99929.07
2019-02-16T23:22:44.241Z,99905.58
2019-02-16T23:26:46.598Z,99913.28
2019-02-16T23:30:50.573Z,99905.56
2019-02-16T23:34:52.956Z,99904.52
2019-02-16T23:38:55.556Z,99909.14
2019-02-16T23:42:57.861Z,99904.63
2019-02-16T23:47:00.307Z,99917.40
2019-02-16T23:51:02.850Z,99928.77
2019-02-16T23:55:05.728Z,99921.74
2019-02-16T23:59:08.065Z,99936.66
